createdAt,value
2022-12-06T00:01:24.289Z,95.34
2022-12-06T00:03:55.327Z,94.78
2022-12-06T00:06:23.469Z,93.73
2022-12-06T00:08:50.858Z,97.89
2022-12-06T00:11:19.047Z,98.49
2022-12-06T00:13:46.038Z,100.00
2022-12-06T00:16:14.105Z,98.45
2022-12-06T00:18:41.588Z,97.05
2022-12-06T00:21:15.639Z,95.84
2022-12-06T00:23:46.393Z,96.47
2022-12-06T00:26:14.047Z,96.25
2022-12-06T00:28:40.878Z,93.52
2022-12-06T00:31:09.282Z,97.54
2022-12-06T00:33:36.578Z,95.20
2022-12-06T00:36:05.597Z,98.17
2022-12-06T00:38:32.636Z,99.15
2022-12-06T00:41:04.376Z,97.74
2022-12-06T00:43:31.517Z,95.73
2022-12-06T00:46:00.970Z,93.07
2022-12-06T00:48:27.960Z,92.91
2022-12-06T00:50:55.110Z,90.11
2022-12-06T00:53:21.760Z,89.49
2022-12-06T00:55:48.587Z,93.07
2022-12-06T00:58:15.419Z,94.80
2022-12-06T01:00:42.827Z,93.76
2022-12-06T01:03:09.847Z,92.44
2022-12-06T01:05:41.049Z,92.65
2022-12-06T01:08:07.729Z,91.09
2022-12-06T01:10:34.623Z,89.81
2022-12-06T01:13:01.437Z,88.61
2022-12-06T01:15:28.039Z,87.89
2022-12-06T01:17:54.768Z,88.36
2022-12-06T01:20:21.807Z,88.96
2022-12-06T01:22:48.529Z,87.20
2022-12-06T01:25:15.230Z,86.83
2022-12-06T01:27:41.937Z,88.81
2022-12-06T01:30:08.740Z,85.88
2022-12-06T01:32:35.450Z,87.02
2022-12-06T01:35:02.198Z,87.38
2022-12-06T01:37:28.811Z,85.93
2022-12-06T01:39:55.618Z,85.13
2022-12-06T01:42:22.319Z,84.42
2022-12-06T01:44:53.490Z,86.13
2022-12-06T01:47:23.664Z,84.84
2022-12-06T01:49:53.316Z,87.52
2022-12-06T01:52:21.097Z,94.20
2022-12-06T01:54:47.851Z,88.97
2022-12-06T01:57:15.588Z,86.75
2022-12-06T01:59:42.549Z,86.42
2022-12-06T02:02:09.449Z,92.58
2022-12-06T02:04:36.460Z,92.38
2022-12-06T02:07:03.507Z,88.04
2022-12-06T02:09:31.048Z,87.37
2022-12-06T02:11:57.769Z,87.47
2022-12-06T02:14:27.477Z,86.00
2022-12-06T02:17:00.364Z,85.44
2022-12-06T02:19:27.048Z,84.66
2022-12-06T02:22:17.780Z,87.06
2022-12-06T02:24:59.783Z,85.05
2022-12-06T02:27:32.506Z,83.75
2022-12-06T02:30:08.215Z,82.61
2022-12-06T02:32:54.482Z,83.50
2022-12-06T02:35:40.608Z,81.80
2022-12-06T02:38:17.900Z,86.77
2022-12-06T02:40:49.338Z,83.63
2022-12-06T02:43:17.839Z,82.39
2022-12-06T02:45:55.981Z,81.96
2022-12-06T02:48:23.808Z,81.60
2022-12-06T02:51:01.192Z,81.13
2022-12-06T02:53:29.620Z,80.63
2022-12-06T02:55:56.985Z,88.73
2022-12-06T02:58:23.738Z,85.40
2022-12-06T03:00:52.838Z,82.74
2022-12-06T03:03:38.298Z,82.26
2022-12-06T03:06:15.818Z,82.74
2022-12-06T03:08:45.287Z,81.81
2022-12-06T03:11:12.670Z,81.62
2022-12-06T03:13:48.677Z,81.62
2022-12-06T03:16:35.837Z,82.93
2022-12-06T03:19:08.129Z,82.86
2022-12-06T03:21:58.133Z,87.16
2022-12-06T03:24:25.757Z,89.01
2022-12-06T03:26:53.131Z,85.08
2022-12-06T03:29:21.780Z,83.18
2022-12-06T03:31:49.507Z,90.45
2022-12-06T03:34:21.817Z,88.45
2022-12-06T03:36:50.428Z,87.91
2022-12-06T03:39:22.128Z,86.15
2022-12-06T03:41:51.815Z,85.27
2022-12-06T03:44:19.387Z,86.20
2022-12-06T03:46:49.323Z,86.45
2022-12-06T03:49:23.719Z,86.62
2022-12-06T03:51:50.368Z,86.63
2022-12-06T03:54:17.277Z,85.78
2022-12-06T03:56:43.920Z,85.77
2022-12-06T03:59:11.424Z,88.03
2022-12-06T04:01:39.134Z,89.09
2022-12-06T04:04:06.117Z,88.19
2022-12-06T04:06:33.060Z,87.97
2022-12-06T04:09:19.926Z,88.13
2022-12-06T04:11:47.177Z,87.86
2022-12-06T04:14:13.888Z,86.99
2022-12-06T04:16:59.289Z,88.69
2022-12-06T04:19:25.989Z,90.66
2022-12-06T04:22:11.430Z,91.66
2022-12-06T04:24:38.290Z,90.93
2022-12-06T04:27:23.570Z,90.21
2022-12-06T04:30:08.658Z,89.97
2022-12-06T04:32:54.048Z,93.06
2022-12-06T04:35:39.270Z,94.00
2022-12-06T04:38:24.629Z,95.10
2022-12-06T04:40:51.317Z,94.44
2022-12-06T04:43:36.604Z,94.51
2022-12-06T04:46:03.518Z,93.68
2022-12-06T04:48:30.256Z,92.38
2022-12-06T04:50:56.946Z,92.92
2022-12-06T04:53:23.748Z,93.11
2022-12-06T04:55:50.579Z,92.19
2022-12-06T04:58:17.654Z,92.70
2022-12-06T05:00:44.520Z,91.32
2022-12-06T05:03:12.188Z,91.85
2022-12-06T05:05:39.098Z,89.33
2022-12-06T05:08:06.707Z,89.38
2022-12-06T05:10:33.903Z,87.48
2022-12-06T05:13:01.598Z,85.36
2022-12-06T05:15:29.432Z,83.87
2022-12-06T05:17:56.409Z,86.52
2022-12-06T05:20:23.128Z,86.50
2022-12-06T05:22:49.869Z,87.57
2022-12-06T05:25:17.331Z,86.24
2022-12-06T05:27:44.911Z,86.46
2022-12-06T05:30:11.918Z,83.48
2022-12-06T05:32:39.641Z,83.41
2022-12-06T05:35:06.942Z,84.08
2022-12-06T05:37:33.864Z,81.24
2022-12-06T05:40:00.889Z,76.71
2022-12-06T05:42:27.781Z,77.19
2022-12-06T05:44:54.598Z,76.50
2022-12-06T05:47:21.342Z,74.96
2022-12-06T05:49:48.137Z,75.06
2022-12-06T05:52:14.896Z,75.96
2022-12-06T05:54:41.614Z,74.06
2022-12-06T05:57:08.404Z,73.11
2022-12-06T05:59:35.307Z,72.93
2022-12-06T06:02:02.112Z,73.40
2022-12-06T06:04:29.095Z,73.44
2022-12-06T06:06:55.737Z,73.58
2022-12-06T06:09:22.679Z,74.91
2022-12-06T06:11:49.388Z,73.66
2022-12-06T06:14:16.346Z,73.46
2022-12-06T06:16:43.017Z,75.42
2022-12-06T06:19:09.803Z,77.13
2022-12-06T06:21:36.574Z,75.29
2022-12-06T06:24:03.320Z,76.56
2022-12-06T06:26:30.266Z,75.25
2022-12-06T06:28:56.961Z,73.55
2022-12-06T06:31:24.094Z,71.72
2022-12-06T06:33:50.912Z,70.20
2022-12-06T06:36:17.574Z,70.40
2022-12-06T06:38:44.307Z,69.67
2022-12-06T06:41:14.774Z,71.03
2022-12-06T06:43:41.766Z,70.57
2022-12-06T06:46:10.242Z,71.23
2022-12-06T06:48:38.586Z,71.43
2022-12-06T06:51:06.853Z,71.34
2022-12-06T06:53:33.981Z,71.47
2022-12-06T06:56:00.828Z,71.50
2022-12-06T06:58:28.633Z,71.99
2022-12-06T07:00:56.327Z,71.93
2022-12-06T07:03:23.869Z,71.93
2022-12-06T07:06:01.831Z,71.33
2022-12-06T07:08:29.258Z,71.11
2022-12-06T07:10:56.105Z,70.89
2022-12-06T07:13:24.656Z,70.71
2022-12-06T07:15:54.032Z,70.76
2022-12-06T07:18:21.625Z,71.09
2022-12-06T07:20:48.888Z,71.00
2022-12-06T07:23:15.900Z,71.08
2022-12-06T07:25:42.754Z,70.89
2022-12-06T07:28:09.487Z,71.05
2022-12-06T07:30:36.287Z,71.22
2022-12-06T07:33:03.181Z,70.89
2022-12-06T07:35:48.869Z,70.96
2022-12-06T07:38:18.877Z,71.08
2022-12-06T07:41:03.980Z,70.84
2022-12-06T07:43:50.356Z,71.62
2022-12-06T07:46:17.300Z,71.67
2022-12-06T07:48:44.359Z,71.80
2022-12-06T07:51:11.095Z,71.41
2022-12-06T07:53:37.885Z,72.47
2022-12-06T07:56:08.367Z,73.63
2022-12-06T07:58:36.436Z,72.75
2022-12-06T08:01:04.396Z,73.04
2022-12-06T08:03:33.616Z,72.74
2022-12-06T08:06:00.878Z,72.51
2022-12-06T08:08:29.181Z,73.39
2022-12-06T08:10:59.668Z,72.76
2022-12-06T08:13:26.471Z,72.71
2022-12-06T08:15:53.904Z,72.85
2022-12-06T08:18:20.668Z,73.17
2022-12-06T08:20:47.920Z,72.70
2022-12-06T08:23:14.829Z,72.56
2022-12-06T08:25:41.683Z,72.36
2022-12-06T08:28:08.602Z,73.58
2022-12-06T08:30:35.759Z,73.23
2022-12-06T08:33:04.571Z,72.33
2022-12-06T08:35:31.410Z,71.79
2022-12-06T08:37:58.482Z,71.07
2022-12-06T08:40:27.202Z,70.87
2022-12-06T08:42:53.882Z,70.32
2022-12-06T08:45:21.094Z,70.08
2022-12-06T08:47:47.819Z,69.31
2022-12-06T08:50:14.606Z,71.17
2022-12-06T08:52:41.292Z,71.19
2022-12-06T08:55:08.126Z,70.24
2022-12-06T08:57:34.872Z,70.40
2022-12-06T09:00:02.185Z,70.42
2022-12-06T09:02:30.205Z,69.99
2022-12-06T09:04:59.383Z,69.10
2022-12-06T09:07:26.787Z,68.83
2022-12-06T09:09:54.945Z,68.53
2022-12-06T09:12:22.955Z,67.31
2022-12-06T09:14:49.693Z,66.80
2022-12-06T09:17:17.535Z,66.29
2022-12-06T09:19:44.384Z,66.97
2022-12-06T09:22:11.096Z,66.97
2022-12-06T09:24:38.289Z,68.15
2022-12-06T09:27:04.990Z,68.30
2022-12-06T09:29:38.876Z,66.91
2022-12-06T09:32:07.369Z,67.57
2022-12-06T09:34:34.124Z,67.22
2022-12-06T09:37:12.480Z,66.65
2022-12-06T09:39:40.758Z,66.08
2022-12-06T09:42:16.656Z,64.47
2022-12-06T09:44:55.287Z,66.06
2022-12-06T09:47:49.386Z,65.08
2022-12-06T09:50:18.538Z,65.37
2022-12-06T09:52:46.315Z,65.04
2022-12-06T09:55:25.712Z,63.83
2022-12-06T09:58:05.917Z,62.93
2022-12-06T10:00:41.295Z,62.78
2022-12-06T10:03:25.160Z,61.64
2022-12-06T10:06:01.422Z,60.20
2022-12-06T10:08:51.658Z,60.44
2022-12-06T10:11:24.588Z,62.41
2022-12-06T10:14:06.967Z,62.58
2022-12-06T10:16:43.102Z,62.07
2022-12-06T10:19:19.045Z,62.71
2022-12-06T10:21:45.970Z,61.50
2022-12-06T10:24:31.951Z,61.63
2022-12-06T10:27:04.107Z,59.31
2022-12-06T10:29:49.520Z,60.55
2022-12-06T10:32:24.221Z,59.98
2022-12-06T10:34:58.721Z,60.59
2022-12-06T10:37:39.821Z,60.53
2022-12-06T10:40:12.669Z,61.92
2022-12-06T10:42:52.925Z,60.38
2022-12-06T10:46:08.474Z,59.98
2022-12-06T10:48:36.490Z,59.18
2022-12-06T10:51:29.501Z,58.08
2022-12-06T10:54:02.486Z,60.23
2022-12-06T10:56:32.344Z,60.33
2022-12-06T10:59:02.314Z,59.36
2022-12-06T11:01:36.794Z,59.79
2022-12-06T11:04:03.557Z,61.28
2022-12-06T11:06:37.805Z,60.37
2022-12-06T11:09:27.917Z,60.75
2022-12-06T11:11:55.130Z,60.60
2022-12-06T11:14:22.075Z,59.21
2022-12-06T11:16:59.233Z,59.62
2022-12-06T11:19:39.678Z,57.08
2022-12-06T11:22:09.194Z,55.87
2022-12-06T11:24:47.424Z,58.01
2022-12-06T11:27:15.953Z,57.30
2022-12-06T11:29:44.267Z,55.40
2022-12-06T11:32:13.075Z,57.12
2022-12-06T11:34:43.868Z,56.80
2022-12-06T11:37:17.352Z,55.64
2022-12-06T11:39:44.830Z,55.61
2022-12-06T11:42:13.893Z,55.26
2022-12-06T11:44:50.051Z,55.98
2022-12-06T11:47:19.427Z,55.89
2022-12-06T11:49:47.152Z,54.50
2022-12-06T11:52:17.793Z,55.52
2022-12-06T11:54:54.139Z,54.81
2022-12-06T11:57:23.432Z,54.02
2022-12-06T12:00:09.346Z,55.11
2022-12-06T12:02:36.493Z,54.87
2022-12-06T12:05:23.397Z,53.81
2022-12-06T12:08:10.833Z,53.72
2022-12-06T12:10:39.153Z,52.32
2022-12-06T12:13:30.406Z,51.93
2022-12-06T12:16:01.099Z,53.04
2022-12-06T12:18:33.564Z,54.29
2022-12-06T12:21:01.734Z,54.46
2022-12-06T12:23:31.641Z,55.12
2022-12-06T12:26:00.387Z,54.27
2022-12-06T12:28:28.950Z,53.33
2022-12-06T12:30:56.913Z,53.70
2022-12-06T12:33:26.942Z,52.80
2022-12-06T12:36:11.101Z,51.82
2022-12-06T12:38:51.123Z,50.72
2022-12-06T12:41:24.715Z,50.61
2022-12-06T12:47:20.186Z,51.76
2022-12-06T12:50:25.967Z,51.43
2022-12-06T12:52:53.398Z,52.93
2022-12-06T12:55:22.459Z,53.57
2022-12-06T12:57:50.918Z,53.02
2022-12-06T13:00:20.402Z,53.27
2022-12-06T13:02:55.984Z,53.45
2022-12-06T13:05:35.798Z,54.35
2022-12-06T13:08:12.215Z,57.34
2022-12-06T13:10:39.852Z,57.15
2022-12-06T13:13:15.035Z,55.95
2022-12-06T13:15:47.687Z,57.30
2022-12-06T13:18:21.154Z,56.70
2022-12-06T13:20:49.627Z,56.87
2022-12-06T13:23:20.888Z,56.15
2022-12-06T13:25:52.831Z,54.97
2022-12-06T13:28:22.913Z,54.53
2022-12-06T13:30:53.513Z,57.28
2022-12-06T13:33:23.023Z,56.61
2022-12-06T13:35:58.505Z,55.75
2022-12-06T13:38:30.186Z,55.84
2022-12-06T13:40:57.761Z,55.84
2022-12-06T13:43:28.573Z,55.95
2022-12-06T13:46:07.646Z,56.04
2022-12-06T13:48:37.528Z,55.73
2022-12-06T13:51:05.797Z,55.29
2022-12-06T13:53:36.318Z,54.92
2022-12-06T13:56:23.335Z,54.25
2022-12-06T13:58:54.591Z,54.12
2022-12-06T14:01:39.597Z,52.46
2022-12-06T14:06:54.731Z,53.62
2022-12-06T14:09:21.867Z,52.93
2022-12-06T14:11:48.678Z,52.34
2022-12-06T14:14:17.359Z,52.30
2022-12-06T14:16:46.978Z,51.92
2022-12-06T14:19:23.623Z,52.61
2022-12-06T14:21:56.118Z,52.83
2022-12-06T14:24:36.461Z,52.78
2022-12-06T14:27:16.701Z,52.58
2022-12-06T14:29:44.698Z,52.54
2022-12-06T14:32:11.500Z,53.21
2022-12-06T14:34:38.223Z,52.68
2022-12-06T14:37:20.894Z,52.46
2022-12-06T14:39:56.745Z,52.39
2022-12-06T14:42:42.079Z,52.46
2022-12-06T14:45:19.011Z,53.22
2022-12-06T14:47:45.950Z,54.23
2022-12-06T14:50:29.835Z,54.60
2022-12-06T14:52:58.038Z,54.08
2022-12-06T14:55:26.395Z,54.64
2022-12-06T14:58:05.513Z,55.08
2022-12-06T15:00:41.254Z,55.59
2022-12-06T15:03:09.091Z,56.81
2022-12-06T15:05:42.387Z,57.47
2022-12-06T15:08:19.716Z,58.49
2022-12-06T15:10:58.953Z,58.95
2022-12-06T15:13:25.698Z,59.60
2022-12-06T15:16:01.610Z,60.91
2022-12-06T15:18:30.372Z,59.49
2022-12-06T15:20:57.294Z,59.91
2022-12-06T15:23:27.528Z,61.55
2022-12-06T15:25:56.407Z,61.95
2022-12-06T15:28:23.254Z,61.83
2022-12-06T15:30:52.224Z,61.28
2022-12-06T15:33:20.275Z,62.81
2022-12-06T15:35:47.158Z,62.80
2022-12-06T15:38:16.244Z,62.37
2022-12-06T15:40:44.690Z,63.17
2022-12-06T15:43:24.318Z,63.93
2022-12-06T15:45:51.033Z,63.56
2022-12-06T15:48:17.786Z,64.96
2022-12-06T15:50:46.882Z,63.83
2022-12-06T15:53:18.117Z,64.70
2022-12-06T15:55:44.918Z,64.89
2022-12-06T15:58:14.449Z,65.18
2022-12-06T16:00:43.249Z,64.97
2022-12-06T16:03:10.296Z,65.63
2022-12-06T16:05:37.318Z,66.45
2022-12-06T16:08:06.310Z,67.66
2022-12-06T16:11:03.108Z,67.61
2022-12-06T16:13:23.868Z,66.57
2022-12-06T16:15:51.712Z,66.48
2022-12-06T16:18:18.572Z,66.63
2022-12-06T16:20:45.288Z,67.39
2022-12-06T16:24:04.584Z,67.77
2022-12-06T16:26:21.993Z,67.29
2022-12-06T16:28:48.762Z,67.68
2022-12-06T16:31:15.731Z,67.23
2022-12-06T16:33:42.541Z,67.36
2022-12-06T16:36:21.250Z,67.15
2022-12-06T16:38:54.306Z,67.29
2022-12-06T16:41:26.516Z,66.73
2022-12-06T16:43:53.449Z,66.15
2022-12-06T16:46:22.845Z,65.82
2022-12-06T16:48:55.622Z,65.23
2022-12-06T16:51:24.160Z,65.29
2022-12-06T16:53:51.314Z,64.45
2022-12-06T16:56:20.442Z,65.03
2022-12-06T16:58:47.515Z,65.28
2022-12-06T17:01:26.659Z,65.36
2022-12-06T17:03:54.850Z,64.15
2022-12-06T17:06:21.870Z,64.81
2022-12-06T17:08:49.162Z,65.55
2022-12-06T17:11:37.196Z,66.07
2022-12-06T17:14:04.838Z,66.77
2022-12-06T17:16:33.648Z,66.73
2022-12-06T17:19:00.771Z,66.95
2022-12-06T17:21:27.817Z,65.91
2022-12-06T17:24:01.402Z,66.50
2022-12-06T17:26:33.097Z,66.38
2022-12-06T17:29:03.442Z,66.35
2022-12-06T17:31:30.407Z,66.14
2022-12-06T17:34:19.351Z,65.98
2022-12-06T17:36:50.497Z,66.84
2022-12-06T17:39:18.278Z,66.47
2022-12-06T17:42:05.642Z,66.76
2022-12-06T17:44:32.884Z,66.43
2022-12-06T17:46:59.635Z,67.36
2022-12-06T17:49:26.920Z,67.51
2022-12-06T17:51:54.245Z,67.58
2022-12-06T17:54:21.687Z,66.60
2022-12-06T17:56:49.802Z,66.25
2022-12-06T17:59:17.677Z,66.23
2022-12-06T18:02:13.454Z,66.97
2022-12-06T18:04:31.736Z,67.73
2022-12-06T18:06:58.809Z,68.16
2022-12-06T18:09:27.637Z,67.75
2022-12-06T18:11:56.079Z,67.39
2022-12-06T18:14:23.879Z,69.58
2022-12-06T18:16:50.777Z,68.52
2022-12-06T18:19:18.922Z,68.98
2022-12-06T18:21:46.377Z,70.31
2022-12-06T18:24:23.229Z,69.92
2022-12-06T18:26:52.213Z,69.63
2022-12-06T18:29:21.644Z,71.37
2022-12-06T18:31:49.013Z,75.26
2022-12-06T18:34:16.369Z,73.92
2022-12-06T18:36:43.128Z,71.05
2022-12-06T18:39:14.963Z,71.81
2022-12-06T18:41:42.579Z,71.81
2022-12-06T18:44:10.415Z,71.83
2022-12-06T18:46:39.179Z,71.67
2022-12-06T18:49:06.771Z,71.21
2022-12-06T18:51:34.796Z,70.77
2022-12-06T18:54:03.386Z,70.32
2022-12-06T18:56:30.531Z,69.73
2022-12-06T18:58:59.036Z,69.49
2022-12-06T19:01:28.059Z,69.03
2022-12-06T19:03:56.050Z,68.76
2022-12-06T19:06:26.894Z,67.81
2022-12-06T19:08:58.107Z,67.49
2022-12-06T19:11:25.079Z,67.58
2022-12-06T19:13:56.257Z,67.48
2022-12-06T19:16:33.720Z,67.62
2022-12-06T19:19:01.722Z,67.16
2022-12-06T19:21:28.836Z,67.05
2022-12-06T19:23:56.523Z,67.49
2022-12-06T19:26:24.309Z,68.41
2022-12-06T19:28:51.102Z,66.72
2022-12-06T19:31:18.305Z,71.62
2022-12-06T19:33:46.616Z,76.04
2022-12-06T19:36:18.677Z,79.68
2022-12-06T19:38:45.540Z,81.83
2022-12-06T19:41:17.888Z,81.33
2022-12-06T19:44:03.298Z,78.97
2022-12-06T19:46:30.958Z,75.64
2022-12-06T19:48:59.046Z,75.53
2022-12-06T19:51:29.413Z,75.41
2022-12-06T19:53:58.235Z,76.59
2022-12-06T19:56:25.646Z,74.62
2022-12-06T19:58:52.442Z,73.73
2022-12-06T20:01:21.808Z,74.31
2022-12-06T20:03:48.934Z,74.01
2022-12-06T20:06:18.357Z,74.02
2022-12-06T20:08:45.916Z,73.59
2022-12-06T20:11:33.322Z,72.64
2022-12-06T20:14:03.795Z,72.22
2022-12-06T20:16:30.473Z,72.58
2022-12-06T20:18:57.820Z,71.64
2022-12-06T20:21:24.998Z,71.64
2022-12-06T20:23:51.883Z,71.03
2022-12-06T20:26:18.713Z,70.87
2022-12-06T20:28:46.336Z,70.41
2022-12-06T20:31:14.990Z,69.87
2022-12-06T20:33:42.487Z,69.49
2022-12-06T20:36:12.766Z,68.98
2022-12-06T20:38:39.604Z,68.55
2022-12-06T20:41:09.419Z,67.85
2022-12-06T20:43:56.230Z,72.19
2022-12-06T20:46:25.434Z,73.25
2022-12-06T20:48:53.269Z,72.58
2022-12-06T20:51:22.866Z,77.48
2022-12-06T20:53:50.039Z,73.68
2022-12-06T20:56:19.328Z,73.64
2022-12-06T20:58:47.445Z,73.82
2022-12-06T21:01:15.360Z,73.50
2022-12-06T21:03:42.184Z,73.86
2022-12-06T21:06:10.395Z,73.55
2022-12-06T21:08:37.721Z,73.37
2022-12-06T21:13:55.783Z,72.00
2022-12-06T21:16:23.922Z,72.91
2022-12-06T21:19:01.562Z,72.35
2022-12-06T21:21:29.955Z,72.46
2022-12-06T21:24:00.705Z,72.36
2022-12-06T21:26:28.534Z,71.78
2022-12-06T21:28:55.950Z,71.58
2022-12-06T21:31:33.032Z,71.30
2022-12-06T21:34:19.758Z,70.83
2022-12-06T21:36:46.588Z,70.73
2022-12-06T21:39:14.795Z,69.72
2022-12-06T21:41:46.113Z,71.00
2022-12-06T21:44:12.888Z,69.77
2022-12-06T21:46:39.897Z,70.67
2022-12-06T21:49:07.136Z,70.57
2022-12-06T21:51:36.767Z,70.55
2022-12-06T21:54:07.864Z,70.29
2022-12-06T21:56:35.353Z,70.25
2022-12-06T21:59:10.715Z,70.07
2022-12-06T22:01:39.085Z,69.59
2022-12-06T22:04:14.907Z,69.03
2022-12-06T22:06:41.811Z,69.14
2022-12-06T22:09:28.581Z,69.13
2022-12-06T22:12:04.704Z,68.87
2022-12-06T22:14:31.479Z,71.27
2022-12-06T22:16:58.123Z,69.89
2022-12-06T22:19:27.542Z,70.19
2022-12-06T22:21:55.518Z,69.88
2022-12-06T22:24:42.240Z,71.17
2022-12-06T22:27:11.713Z,69.81
2022-12-06T22:29:38.540Z,69.90
2022-12-06T22:32:05.232Z,70.30
2022-12-06T22:34:31.946Z,70.66
2022-12-06T22:36:58.603Z,69.50
2022-12-06T22:39:25.278Z,70.12
2022-12-06T22:41:54.475Z,71.43
2022-12-06T22:44:21.491Z,71.07
2022-12-06T22:46:48.238Z,71.27
2022-12-06T22:49:17.972Z,71.11
2022-12-06T22:51:45.980Z,71.79
2022-12-06T22:54:20.411Z,74.45
2022-12-06T22:56:50.303Z,72.86
2022-12-06T22:59:17.635Z,73.69
2022-12-06T23:01:44.916Z,74.35
2022-12-06T23:04:12.583Z,74.03
2022-12-06T23:06:39.725Z,73.52
2022-12-06T23:09:07.947Z,73.74
2022-12-06T23:11:35.549Z,73.32
2022-12-06T23:14:04.588Z,74.04
2022-12-06T23:16:32.355Z,74.76
2022-12-06T23:19:00.195Z,73.73
2022-12-06T23:21:28.700Z,73.10
2022-12-06T23:23:57.136Z,73.51
2022-12-06T23:26:25.508Z,72.33
2022-12-06T23:28:52.732Z,72.97
2022-12-06T23:31:21.277Z,72.92
2022-12-06T23:33:51.736Z,73.31
2022-12-06T23:36:26.571Z,73.53
2022-12-06T23:38:53.520Z,73.83
2022-12-06T23:41:21.919Z,73.37
2022-12-06T23:43:49.342Z,72.68
2022-12-06T23:46:21.908Z,72.48
2022-12-06T23:48:49.645Z,72.83
2022-12-06T23:51:17.959Z,71.52
2022-12-06T23:53:45.401Z,72.01
2022-12-06T23:56:16.750Z,72.54
2022-12-06T23:58:44.127Z,71.61
